Time;durP1;ratioP1;P1;durP2;ratioP2;P2;SDS_P1;SDS_P2;PMS_P1;PMS_P2;Temp;Humidity;BMP_temperature;BMP_pressure;BME280_temperature;BME280_humidity;BME280_pressure;Samples;Min_cycle;Max_cycle;Signal;HPM_P1;HPM_P2
2021/10/09 00:05:05;;;;;;;;;66.00;56.00;;;;;;;;2;266452625;266452625;-80
2021/10/09 00:13:31;;;;;;;;;57.50;48.00;;;;;;;;2;224902365;224902365;-80
2021/10/09 00:22:13;;;;;;;;;47.00;40.50;;;;;;;;2;270447139;270447139;-80
2021/10/09 00:30:40;;;;;;;;;44.50;39.00;;;;;;;;2;226447140;226447140;-81
2021/10/09 00:39:19;;;;;;;;;59.00;49.00;;;;;;;;2;267818326;267818326;-81
2021/10/09 00:48:01;;;;;;;;;52.50;44.50;;;;;;;;2;234071605;234071605;-81
2021/10/09 00:57:02;;;;;;;;;61.00;50.50;;;;;;;;2;279082873;279082873;-81
2021/10/09 01:05:45;;;;;;;;;37.50;34.00;;;;;;;;2;234069351;234069351;-80
2021/10/09 01:14:45;;;;;;;;;56.50;47.50;;;;;;;;2;279081894;279081894;-80
2021/10/09 01:23:28;;;;;;;;;59.00;49.00;;;;;;;;2;234073151;234073151;-80
2021/10/09 01:32:29;;;;;;;;;61.00;51.00;;;;;;;;2;279085993;279085993;-80
2021/10/09 01:41:13;;;;;;;;;52.50;44.50;;;;;;;;2;233880720;233880720;-81
2021/10/09 01:50:15;;;;;;;;;58.50;49.00;;;;;;;;2;279081148;279081148;-81
2021/10/09 01:58:57;;;;;;;;;63.50;54.50;;;;;;;;2;234069563;234069563;-81
2021/10/09 02:07:58;;;;;;;;;72.50;65.00;;;;;;;;2;278985081;278985081;-81
2021/10/09 02:25:47;;;;;;;;;64.00;54.50;;;;;;;;2;279084724;279084724;-81
2021/10/09 02:34:27;;;;;;;;;57.50;48.50;;;;;;;;2;233782716;233782716;-81
2021/10/09 02:43:28;;;;;;;;;61.00;51.00;;;;;;;;2;278926880;278926880;-80
2021/10/09 02:52:08;;;;;;;;;63.50;52.50;;;;;;;;2;232633128;232633128;-80
2021/10/09 03:01:06;;;;;;;;;61.00;52.50;;;;;;;;2;278950055;278950055;-80
2021/10/09 03:09:48;;;;;;;;;61.50;52.00;;;;;;;;2;233464471;233464471;-81
2021/10/09 03:18:48;;;;;;;;;58.50;49.00;;;;;;;;2;279080094;279080094;-80
2021/10/09 03:27:31;;;;;;;;;59.00;49.50;;;;;;;;2;234067782;234067782;-80
2021/10/09 03:36:32;;;;;;;;;65.00;54.00;;;;;;;;2;279080140;279080140;-81
2021/10/09 03:54:15;;;;;;;;;63.50;54.00;;;;;;;;2;279081151;279081151;-80
2021/10/09 04:02:57;;;;;;;;;63.00;56.00;;;;;;;;2;234070977;234070977;-80
2021/10/09 04:11:57;;;;;;;;;50.50;43.00;;;;;;;;2;279083198;279083198;-81
2021/10/09 04:20:40;;;;;;;;;59.00;48.50;;;;;;;;2;234069926;234069926;-80
2021/10/09 04:29:40;;;;;;;;;57.50;47.00;;;;;;;;2;278968930;278968930;-80
2021/10/09 04:38:22;;;;;;;;;59.50;50.00;;;;;;;;2;233933067;233933067;-81
2021/10/09 04:47:19;;;;;;;;;70.50;63.00;;;;;;;;2;278693384;278693384;-81
2021/10/09 04:55:39;;;;;;;;;68.00;59.00;;;;;;;;2;222887077;222887077;-80
2021/10/09 05:04:17;;;;;;;;;67.50;59.00;;;;;;;;2;269620739;269620739;-80
2021/10/09 05:12:46;;;;;;;;;68.00;59.50;;;;;;;;2;225751061;225751061;-80
2021/10/09 05:21:40;;;;;;;;;63.00;50.50;;;;;;;;2;275720021;275720021;-79
2021/10/09 05:30:20;;;;;;;;;63.50;54.50;;;;;;;;2;232996669;232996669;-80
2021/10/09 05:39:19;;;;;;;;;65.50;56.50;;;;;;;;2;278264135;278264135;-80
2021/10/09 05:48:02;;;;;;;;;65.50;57.00;;;;;;;;2;234072604;234072604;-80
2021/10/09 07:08:10;;;;;;;;;51.50;44.00;;;;;;;;2;273280730;273280730;-79
2021/10/09 07:16:51;;;;;;;;;59.50;49.50;;;;;;;;2;233030817;233030817;-80
2021/10/09 07:25:45;;;;;;;;;62.00;50.50;;;;;;;;2;272496615;272496615;-80
2021/10/09 07:34:23;;;;;;;;;70.00;61.00;;;;;;;;2;234031339;234031339;-80
2021/10/09 07:43:13;;;;;;;;;73.00;66.50;;;;;;;;2;275097842;275097842;-80
2021/10/09 07:51:42;;;;;;;;;68.00;58.50;;;;;;;;2;227309696;227309696;-80
2021/10/09 08:00:27;;;;;;;;;75.00;70.50;;;;;;;;2;269664972;269664972;-80
2021/10/09 08:08:57;;;;;;;;;67.50;59.50;;;;;;;;2;229137333;229137333;-80
2021/10/09 08:17:39;;;;;;;;;58.50;48.50;;;;;;;;2;269551616;269551616;-77
2021/10/09 08:36:00;;;;;;;;;73.50;65.50;;;;;;;;2;273227981;273227981;-81
2021/10/09 08:44:31;;;;;;;;;70.00;59.50;;;;;;;;2;230893745;230893745;-81
2021/10/09 08:53:42;;;;;;;;;61.50;52.50;;;;;;;;2;277306177;277306177;-81
2021/10/09 09:02:45;;;;;;;;;61.50;52.00;;;;;;;;2;233878587;233878587;-81
2021/10/09 09:47:10;;;;;;;;;51.00;43.50;;;;;;;;2;270163121;270163121;-80
2021/10/09 09:55:41;;;;;;;;;61.00;50.50;;;;;;;;2;228940455;228940455;-79
2021/10/09 10:04:35;;;;;;;;;52.00;44.00;;;;;;;;2;273043385;273043385;-79
2021/10/09 10:12:13;;;;;;;;;56.00;48.00;;;;;;;;2;229249486;229249486;-79
2021/10/09 10:19:43;;;;;;;;;61.50;55.00;;;;;;;;2;220502584;220502584;-80
2021/10/09 10:27:35;;;;;;;;;64.00;56.00;;;;;;;;2;201710118;201710118;-80
2021/10/09 10:36:37;;;;;;;;;64.00;52.50;;;;;;;;2;264344011;264344011;-80
2021/10/09 11:02:46;;;;;;;;;51.50;44.00;;;;;;;;2;226300991;226300991;-82
2021/10/09 11:11:42;;;;;;;;;49.50;42.50;;;;;;;;2;269400342;269400342;-80
2021/10/09 11:20:08;;;;;;;;;58.50;49.00;;;;;;;;2;226430680;226430680;-79
2021/10/09 11:29:08;;;;;;;;;51.00;43.50;;;;;;;;2;272201352;272201352;-79
2021/10/09 11:37:43;;;;;;;;;45.00;39.50;;;;;;;;2;227619703;227619703;-79
2021/10/09 11:55:16;;;;;;;;;50.50;43.50;;;;;;;;2;225251801;225251801;-81
2021/10/09 12:04:14;;;;;;;;;40.00;36.50;;;;;;;;2;271739611;271739611;-87
2021/10/09 12:12:47;;;;;;;;;39.00;35.00;;;;;;;;2;228513320;228513320;-81
2021/10/09 12:21:43;;;;;;;;;55.00;46.50;;;;;;;;2;272795448;272795448;-81
2021/10/09 12:30:12;;;;;;;;;44.00;38.50;;;;;;;;2;222461294;222461294;-82
2021/10/09 12:38:39;;;;;;;;;56.00;47.50;;;;;;;;2;264896632;264896632;-81
2021/10/09 12:46:52;;;;;;;;;41.00;37.00;;;;;;;;2;220508803;220508803;-82
2021/10/09 12:55:35;;;;;;;;;36.50;33.50;;;;;;;;2;268029748;268029748;-80
2021/10/09 13:04:02;;;;;;;;;41.00;36.50;;;;;;;;2;226865636;226865636;-76
2021/10/09 13:12:31;;;;;;;;;29.00;28.00;;;;;;;;2;267565673;267565673;-84
2021/10/09 13:20:51;;;;;;;;;57.50;48.00;;;;;;;;2;220842929;220842929;-85
2021/10/09 13:29:31;;;;;;;;;48.00;41.00;;;;;;;;2;267722162;267722162;-85
2021/10/09 13:38:00;;;;;;;;;55.50;46.50;;;;;;;;2;223030071;223030071;-85
2021/10/09 13:46:49;;;;;;;;;41.50;36.50;;;;;;;;2;272658526;272658526;-85
2021/10/09 13:55:20;;;;;;;;;46.50;39.00;;;;;;;;2;229552254;229552254;-77
2021/10/09 14:04:10;;;;;;;;;44.50;39.00;;;;;;;;2;272734150;272734150;-77
2021/10/09 14:12:42;;;;;;;;;38.50;33.50;;;;;;;;2;229814475;229814475;-79
2021/10/09 14:21:36;;;;;;;;;43.50;38.50;;;;;;;;2;275039045;275039045;-75
2021/10/09 14:30:11;;;;;;;;;53.50;44.50;;;;;;;;2;229978000;229978000;-78
2021/10/09 14:39:00;;;;;;;;;45.50;39.50;;;;;;;;2;273778641;273778641;-81
2021/10/09 15:01:21;;;;;;;;;42.50;37.50;;;;;;;;2;272137620;272137620;-81
2021/10/09 15:23:02;;;;;;;;;40.00;35.50;;;;;;;;2;228270157;228270157;-79
2021/10/09 15:31:41;;;;;;;;;32.50;31.00;;;;;;;;2;269028862;269028862;-79
2021/10/09 15:40:04;;;;;;;;;23.50;23.50;;;;;;;;2;225219841;225219841;-78
2021/10/09 15:48:45;;;;;;;;;31.50;30.00;;;;;;;;2;269049772;269049772;-78
2021/10/09 15:57:08;;;;;;;;;29.50;27.00;;;;;;;;2;221943034;221943034;-78
2021/10/09 16:05:57;;;;;;;;;38.00;33.50;;;;;;;;2;272210774;272210774;-79
2021/10/09 16:14:32;;;;;;;;;41.50;37.00;;;;;;;;2;230300306;230300306;-78
2021/10/09 16:26:41;;;;;;;;;38.50;35.00;;;;;;;;2;274053245;274053245;-78
2021/10/09 16:35:15;;;;;;;;;42.50;38.00;;;;;;;;2;230619104;230619104;-75
2021/10/09 16:44:05;;;;;;;;;47.00;40.50;;;;;;;;2;273668108;273668108;-76
2021/10/09 16:52:39;;;;;;;;;45.50;39.50;;;;;;;;2;229747264;229747264;-76
2021/10/09 17:01:33;;;;;;;;;44.00;39.00;;;;;;;;2;275074919;275074919;-80
2021/10/09 17:10:05;;;;;;;;;45.00;39.00;;;;;;;;2;228422902;228422902;-80
2021/10/09 17:19:05;;;;;;;;;61.50;52.50;;;;;;;;2;275084314;275084314;-71
2021/10/09 17:27:34;;;;;;;;;50.00;43.00;;;;;;;;2;229182419;229182419;-71
2021/10/09 17:36:22;;;;;;;;;39.50;36.00;;;;;;;;2;271816457;271816457;-76
2021/10/09 17:44:49;;;;;;;;;37.00;34.00;;;;;;;;2;228620529;228620529;-77
2021/10/09 17:53:40;;;;;;;;;29.00;28.50;;;;;;;;2;271157699;271157699;-76
2021/10/09 18:02:10;;;;;;;;;44.00;38.50;;;;;;;;2;229152736;229152736;-77
2021/10/09 18:10:51;;;;;;;;;39.50;35.50;;;;;;;;2;269325012;269325012;-77
2021/10/09 18:19:13;;;;;;;;;49.50;39.00;;;;;;;;2;224596859;224596859;-78
2021/10/09 18:27:54;;;;;;;;;41.50;36.50;;;;;;;;2;267803339;267803339;-76
2021/10/09 18:36:18;;;;;;;;;46.50;40.00;;;;;;;;2;224664489;224664489;-75
2021/10/09 18:44:55;;;;;;;;;47.00;40.00;;;;;;;;2;266809855;266809855;-75
2021/10/09 18:53:09;;;;;;;;;41.00;36.50;;;;;;;;2;220991866;220991866;-76
2021/10/09 19:01:47;;;;;;;;;52.50;44.50;;;;;;;;2;266187835;266187835;-83
2021/10/09 19:10:13;;;;;;;;;52.00;43.50;;;;;;;;2;227465569;227465569;-80
2021/10/09 19:18:48;;;;;;;;;58.50;48.00;;;;;;;;2;267098026;267098026;-76
2021/10/09 19:27:02;;;;;;;;;66.50;55.50;;;;;;;;2;218129677;218129677;-77
2021/10/09 19:35:44;;;;;;;;;48.50;41.50;;;;;;;;2;267866308;267866308;-77
2021/10/09 19:44:00;;;;;;;;;81.50;71.50;;;;;;;;2;219713520;219713520;-78
2021/10/09 19:52:27;;;;;;;;;74.50;62.50;;;;;;;;2;264004949;264004949;-80
2021/10/09 20:00:35;;;;;;;;;56.50;46.50;;;;;;;;2;220633579;220633579;-80
2021/10/09 20:08:57;;;;;;;;;53.50;43.50;;;;;;;;2;254137946;254137946;-82
2021/10/09 20:17:06;;;;;;;;;40.00;36.50;;;;;;;;2;215945360;215945360;-83
2021/10/09 20:25:38;;;;;;;;;39.50;36.00;;;;;;;;2;262971042;262971042;-82
2021/10/09 20:33:55;;;;;;;;;60.00;48.00;;;;;;;;2;222955370;222955370;-77
2021/10/09 20:42:30;;;;;;;;;54.00;44.50;;;;;;;;2;264470036;264470036;-78
2021/10/09 20:50:45;;;;;;;;;60.50;47.50;;;;;;;;2;219597621;219597621;-79
2021/10/09 20:59:16;;;;;;;;;44.50;39.00;;;;;;;;2;264829325;264829325;-79
2021/10/09 21:07:43;;;;;;;;;61.50;49.50;;;;;;;;2;223959764;223959764;-80
2021/10/09 21:24:55;;;;;;;;;49.50;42.50;;;;;;;;2;221120719;221120719;-78
2021/10/09 21:33:28;;;;;;;;;52.50;44.50;;;;;;;;2;263407978;263407978;-79
2021/10/09 21:41:46;;;;;;;;;59.00;49.50;;;;;;;;2;223014288;223014288;-80
2021/10/09 21:50:22;;;;;;;;;69.50;60.50;;;;;;;;2;265996890;265996890;-78
2021/10/09 22:16:29;;;;;;;;;39.50;35.00;;;;;;;;2;267769136;267769136;-78
2021/10/09 22:33:34;;;;;;;;;46.00;39.50;;;;;;;;2;224267923;224267923;-79
2021/10/09 22:42:07;;;;;;;;;42.50;37.00;;;;;;;;2;264086065;264086065;-77
2021/10/09 22:50:23;;;;;;;;;48.50;40.50;;;;;;;;2;221721437;221721437;-78
2021/10/09 22:58:55;;;;;;;;;51.00;43.50;;;;;;;;2;266601811;266601811;-78
2021/10/09 23:07:11;;;;;;;;;44.50;39.50;;;;;;;;2;221833860;221833860;-79
2021/10/09 23:15:41;;;;;;;;;40.00;36.00;;;;;;;;2;264114773;264114773;-79
2021/10/09 23:23:53;;;;;;;;;57.50;48.00;;;;;;;;2;221844992;221844992;-78
2021/10/09 23:32:24;;;;;;;;;44.00;37.00;;;;;;;;2;264009254;264009254;-78
2021/10/09 23:40:30;;;;;;;;;51.00;40.00;;;;;;;;2;218596521;218596521;-78
2021/10/09 23:48:56;;;;;;;;;50.00;41.50;;;;;;;;2;261012133;261012133;-78
2021/10/09 23:57:09;;;;;;;;;51.00;43.00;;;;;;;;2;218603404;218603404;-78
